Time;durP1;ratioP1;P1;durP2;ratioP2;P2;SDS_P1;SDS_P2;PMS_P1;PMS_P2;Temp;Humidity;BMP_temperature;BMP_pressure;BME280_temperature;BME280_humidity;BME280_pressure;Samples;Min_cycle;Max_cycle;Signal;HPM_P1;HPM_P2
2022/11/25 00:01:44;;;;;;;18.67;3.83;;;;;;;7.50;100.00;100893.13;5035171;28;20025;-81
2022/11/25 00:04:09;;;;;;;17.50;3.70;;;;;;;7.79;100.00;100937.94;5036571;28;20104;-78
2022/11/25 00:06:35;;;;;;;24.75;3.72;;;;;;;7.71;100.00;100924.63;5036516;28;20055;-79
2022/11/25 00:09:03;;;;;;;18.77;3.10;;;;;;;7.83;100.00;100929.16;5036629;28;20021;-78
2022/11/25 00:11:39;;;;;;;15.07;3.13;;;;;;;7.85;100.00;100927.34;5036480;28;20033;-81
2022/11/25 00:14:06;;;;;;;14.52;3.15;;;;;;;7.73;100.00;100909.97;5036417;28;20104;-80
2022/11/25 00:16:36;;;;;;;17.67;4.18;;;;;;;7.31;100.00;100833.28;5036160;28;20487;-81
2022/11/25 00:19:01;;;;;;;21.60;3.80;;;;;;;7.57;100.00;100873.94;5018744;28;20112;-82
2022/11/25 00:21:37;;;;;;;19.80;4.63;;;;;;;7.91;100.00;100927.03;5036053;28;20101;-81
2022/11/25 00:24:05;;;;;;;16.13;3.08;;;;;;;7.74;100.00;100889.31;5036202;28;20052;-81
2022/11/25 00:26:32;;;;;;;18.25;4.45;;;;;;;7.84;100.00;100892.25;5036219;28;20033;-81
2022/11/25 00:29:00;;;;;;;19.33;3.22;;;;;;;8.00;100.00;100916.28;5036157;28;20032;-80
2022/11/25 00:31:28;;;;;;;13.98;3.40;;;;;;;7.90;100.00;100880.84;5035905;28;20029;-80
2022/11/25 00:33:55;;;;;;;15.50;3.58;;;;;;;7.56;100.00;100833.69;5036405;28;20417;-81
2022/11/25 00:36:25;;;;;;;19.23;3.50;;;;;;;7.63;100.00;100847.06;5035813;28;20025;-81
2022/11/25 00:38:53;;;;;;;16.98;3.30;;;;;;;8.10;100.00;100913.25;5036232;28;20075;-80
2022/11/25 00:46:47;;;;;;;15.48;3.60;;;;;;;8.16;100.00;100910.34;5035824;28;20056;-81
2022/11/25 00:49:13;;;;;;;20.00;3.92;;;;;;;8.02;100.00;100885.34;5035944;28;20030;-81
2022/11/25 00:51:38;;;;;;;15.02;3.72;;;;;;;7.67;100.00;100830.56;5035581;28;20083;-82
2022/11/25 00:54:04;;;;;;;19.00;5.70;;;;;;;8.20;100.00;100911.88;5035843;28;20028;-79
2022/11/25 00:56:29;;;;;;;18.30;3.03;;;;;;;8.17;100.00;100899.19;5035717;28;20029;-78
2022/11/25 00:58:55;;;;;;;16.13;3.70;;;;;;;8.20;100.00;100912.69;5036003;28;20029;-80
2022/11/25 01:01:20;;;;;;;16.25;3.65;;;;;;;8.21;100.00;100908.38;5035676;28;20041;-81
2022/11/25 01:03:50;;;;;;;24.95;4.78;;;;;;;8.03;100.00;100894.72;5035728;28;20152;-80
2022/11/25 01:06:15;;;;;;;16.17;3.15;;;;;;;8.16;100.00;100900.06;5035382;28;20108;-80
2022/11/25 01:08:41;;;;;;;18.00;4.20;;;;;;;8.22;100.00;100918.59;5035468;28;20108;-81
2022/11/25 01:11:10;;;;;;;17.83;3.75;;;;;;;8.24;100.00;100913.38;5017477;28;20055;-80
2022/11/25 01:13:36;;;;;;;16.77;3.40;;;;;;;8.25;100.00;100903.00;5035326;28;20465;-81
2022/11/25 01:16:06;;;;;;;21.35;3.40;;;;;;;8.23;100.00;100907.38;5035364;28;20025;-80
2022/11/25 01:18:32;;;;;;;15.75;3.42;;;;;;;8.28;100.00;100909.75;5035368;28;20030;-80
2022/11/25 01:21:10;;;;;;;16.17;3.50;;;;;;;8.26;100.00;100902.09;5035516;28;20469;-81
2022/11/25 01:23:36;;;;;;;14.77;4.15;;;;;;;8.30;100.00;100913.88;5035148;28;20031;-80
2022/11/25 01:26:10;;;;;;;19.10;3.45;;;;;;;8.12;100.00;100878.81;5035401;28;20108;-78
2022/11/25 01:28:35;;;;;;;10.95;2.83;;;;;;;8.28;100.00;100897.72;5035127;28;20408;-79
2022/11/25 01:31:07;;;;;;;16.85;3.33;;;;;;;8.39;100.00;100909.22;5035001;28;20044;-79
2022/11/25 01:33:33;;;;;;;;;;;;;;;8.41;100.00;100910.78;5035616;28;20412;-80
2022/11/25 01:36:02;;;;;;;19.33;3.28;;;;;;;8.25;100.00;100900.41;5035076;28;19913;-80
2022/11/25 01:38:28;;;;;;;16.42;3.00;;;;;;;8.39;100.00;100928.06;5033457;28;20036;-79
2022/11/25 01:40:53;;;;;;;17.30;2.90;;;;;;;8.31;100.00;100914.72;5017028;28;20480;-79
2022/11/25 01:43:19;;;;;;;17.33;3.40;;;;;;;8.41;100.00;100933.09;5034619;28;20057;-77
2022/11/25 01:45:44;;;;;;;16.20;3.42;;;;;;;8.40;100.00;100924.56;5034865;28;20112;-79
2022/11/25 01:48:17;;;;;;;19.15;3.78;;;;;;;8.38;100.00;100921.25;5034786;28;20064;-77
2022/11/25 01:50:43;;;;;;;17.60;3.42;;;;;;;8.48;100.00;100929.31;5034739;28;20053;-80
2022/11/25 01:53:12;;;;;;;14.13;2.95;;;;;;;8.50;100.00;100945.50;5034383;28;20029;-81
2022/11/25 01:55:43;;;;;;;17.42;3.20;;;;;;;8.51;100.00;100948.00;5034740;28;20108;-77
2022/11/25 01:58:31;;;;;;;17.90;3.30;;;;;;;8.44;100.00;100936.34;5033993;28;20033;-80
2022/11/25 02:00:57;;;;;;;13.90;3.90;;;;;;;8.53;100.00;100947.91;5034543;28;20022;-78
2022/11/25 02:03:33;;;;;;;16.05;3.28;;;;;;;8.51;100.00;100949.72;5034624;28;20037;-79
2022/11/25 02:06:10;;;;;;;16.27;3.25;;;;;;;8.54;100.00;100949.56;5034313;28;20033;-79
2022/11/25 02:08:37;;;;;;;19.10;3.90;;;;;;;8.61;100.00;100958.63;5034302;28;20022;-80
2022/11/25 02:11:03;;;;;;;15.90;3.60;;;;;;;8.61;100.00;100958.63;5034244;28;20044;-78
2022/11/25 02:13:30;;;;;;;16.25;3.83;;;;;;;8.62;100.00;100962.88;5034391;28;20026;-78
2022/11/25 02:15:56;;;;;;;14.57;2.90;;;;;;;8.62;100.00;100966.28;5034210;28;20041;-80
2022/11/25 02:18:22;;;;;;;18.15;3.92;;;;;;;8.53;100.00;100956.44;5034117;28;20018;-80
2022/11/25 02:20:47;;;;;;;13.73;3.50;;;;;;;8.62;100.00;100978.31;5034038;28;20517;-80
2022/11/25 02:23:24;;;;;;;17.15;3.90;;;;;;;8.60;100.00;100978.41;5033823;28;20039;-81
2022/11/25 02:25:51;;;;;;;11.50;2.88;;;;;;;8.51;100.00;100970.31;5033828;28;20076;-81
2022/11/25 02:28:18;;;;;;;16.15;3.00;;;;;;;8.55;100.00;100979.53;5034091;28;20031;-81
2022/11/25 02:30:44;;;;;;;19.63;3.30;;;;;;;8.53;100.00;100981.38;5033859;28;20025;-80
2022/11/25 02:33:10;;;;;;;16.08;3.90;;;;;;;8.51;100.00;100985.75;5033722;28;20021;-81
2022/11/25 02:35:38;;;;;;;18.33;4.03;;;;;;;8.41;100.00;100979.44;5033780;28;20108;-81
2022/11/25 02:38:35;;;;;;;14.07;3.08;;;;;;;8.42;100.00;100978.53;5015790;28;20072;-81
2022/11/25 02:41:03;;;;;;;17.88;3.83;;;;;;;8.40;100.00;100991.47;5032576;28;20121;-81
2022/11/25 02:43:29;;;;;;;16.38;3.80;;;;;;;8.17;100.00;100954.03;5015904;28;20424;-81
2022/11/25 02:46:03;;;;;;;12.63;3.10;;;;;;;8.05;100.00;100939.19;5033665;28;20095;-81
2022/11/25 02:48:31;;;;;;;12.73;3.17;;;;;;;8.18;100.00;100972.88;5033722;28;20030;-81
2022/11/25 02:50:57;;;;;;;13.13;4.03;;;;;;;8.22;100.00;100990.63;5033651;28;20025;-81
2022/11/25 02:53:22;;;;;;;13.15;3.00;;;;;;;8.22;100.00;100998.34;5033392;28;20036;-81
2022/11/25 02:55:48;;;;;;;14.85;3.38;;;;;;;8.12;100.00;100981.72;5033443;28;20464;-80
2022/11/25 02:58:14;;;;;;;14.93;2.65;;;;;;;8.10;100.00;100990.41;5033419;28;20102;-80
2022/11/25 03:00:40;;;;;;;14.98;2.80;;;;;;;8.00;100.00;100966.91;5033602;28;20029;-80
2022/11/25 03:03:05;;;;;;;12.57;3.13;;;;;;;8.09;100.00;100974.16;5033427;28;20022;-80
2022/11/25 03:05:31;;;;;;;11.35;2.40;;;;;;;8.06;100.00;100976.84;5033471;28;20037;-80
2022/11/25 03:07:56;;;;;;;12.98;2.83;;;;;;;8.03;100.00;100941.84;5033302;28;20134;-80
2022/11/25 03:10:22;;;;;;;10.55;2.47;;;;;;;7.85;100.00;100883.63;5032324;28;20096;-81
2022/11/25 03:12:47;;;;;;;10.55;3.10;;;;;;;7.94;100.00;100915.75;5033260;28;20025;-81
2022/11/25 03:15:13;;;;;;;15.40;3.75;;;;;;;7.96;100.00;100926.78;5015511;28;20432;-81
2022/11/25 03:17:39;;;;;;;11.02;2.58;;;;;;;7.90;100.00;100934.84;5033391;28;20469;-81
2022/11/25 03:20:06;;;;;;;13.05;2.55;;;;;;;7.84;100.00;100942.84;5033293;28;20037;-80
2022/11/25 03:22:31;;;;;;;14.52;2.53;;;;;;;7.85;100.00;100957.34;5032967;28;20032;-79
2022/11/25 03:24:57;;;;;;;13.57;3.17;;;;;;;7.60;100.00;100932.88;5033077;28;20029;-80
2022/11/25 03:27:22;;;;;;;17.00;3.35;;;;;;;7.84;100.00;100986.56;5033082;28;20369;-79
2022/11/25 03:29:48;;;;;;;15.85;4.32;;;;;;;7.65;100.00;100956.59;5019796;28;20040;-81
2022/11/25 03:32:13;;;;;;;16.40;3.40;;;;;;;7.64;100.00;100949.78;5013323;28;20056;-81
2022/11/25 03:34:39;;;;;;;11.43;2.47;;;;;;;7.76;100.00;100953.50;5013060;28;20038;-81
2022/11/25 03:37:05;;;;;;;16.83;2.90;;;;;;;7.80;100.00;100973.03;5013307;28;20057;-80
2022/11/25 03:39:30;;;;;;;11.10;3.15;;;;;;;7.81;100.00;100981.56;5013136;28;20030;-81
2022/11/25 03:41:55;;;;;;;11.10;2.42;;;;;;;7.81;100.00;100997.81;5013065;28;20073;-81
2022/11/25 03:44:20;;;;;;;14.95;2.60;;;;;;;7.62;100.00;100972.19;5012912;28;20515;-81
2022/11/25 03:46:46;;;;;;;15.40;2.88;;;;;;;7.57;100.00;100974.16;5088722;23;20076;-81
2022/11/25 03:49:11;;;;;;;14.52;2.80;;;;;;;7.76;100.00;101003.16;5033075;28;20036;-81
2022/11/25 03:51:36;;;;;;;13.25;2.70;;;;;;;7.78;100.00;101004.88;5033898;28;20109;-80
2022/11/25 03:54:02;;;;;;;13.95;2.55;;;;;;;7.76;100.00;101004.91;5034411;28;20125;-80
2022/11/25 03:56:27;;;;;;;10.32;2.70;;;;;;;7.75;100.00;101003.25;5032672;28;20572;-80
2022/11/25 03:58:52;;;;;;;11.48;2.30;;;;;;;7.74;100.00;101012.69;5032750;28;20056;-81
2022/11/25 04:01:18;;;;;;;12.15;2.40;;;;;;;7.65;100.00;101000.28;5032882;28;20124;-81
2022/11/25 04:03:43;;;;;;;14.20;2.63;;;;;;;7.57;100.00;100992.13;5032976;28;20112;-80
2022/11/25 04:06:08;;;;;;;12.75;2.70;;;;;;;7.59;100.00;101008.31;5032759;28;20064;-81
2022/11/25 04:08:34;;;;;;;12.95;2.30;;;;;;;7.50;100.00;101003.59;5014695;28;20041;-81
2022/11/25 04:10:59;;;;;;;9.82;2.33;;;;;;;7.45;100.00;101024.38;5014924;28;20022;-81
2022/11/25 04:13:24;;;;;;;10.93;2.70;;;;;;;7.38;100.00;101022.19;5032949;28;20392;-81
2022/11/25 04:15:50;;;;;;;9.38;1.95;;;;;;;7.32;100.00;101030.16;5032749;28;20018;-81
2022/11/25 04:18:17;;;;;;;9.52;2.20;;;;;;;7.28;100.00;101036.34;5032614;28;20034;-81
2022/11/25 04:20:43;;;;;;;7.00;2.03;;;;;;;7.14;100.00;101016.41;5034123;28;20033;-81
2022/11/25 04:23:10;;;;;;;11.15;2.35;;;;;;;7.28;100.00;101038.91;5036220;28;20385;-81
2022/11/25 04:25:35;;;;;;;8.18;1.70;;;;;;;7.29;100.00;101040.59;5018639;28;20025;-81
2022/11/25 04:28:01;;;;;;;8.40;1.90;;;;;;;7.18;100.00;101031.63;5036280;28;20025;-81
2022/11/25 04:30:28;;;;;;;10.73;2.55;;;;;;;7.30;100.00;101047.38;5035753;28;20461;-80
2022/11/25 04:32:53;;;;;;;10.18;1.80;;;;;;;7.37;100.00;101057.28;5035921;28;20037;-80
2022/11/25 04:35:18;;;;;;;11.73;2.05;;;;;;;7.40;100.00;101069.19;5017554;28;20038;-81
2022/11/25 04:37:44;;;;;;;9.07;1.80;;;;;;;7.20;100.00;101036.69;5036027;28;20030;-81
2022/11/25 04:40:10;;;;;;;7.60;1.63;;;;;;;7.29;100.00;101043.97;5035921;28;20040;-80
2022/11/25 04:42:36;;;;;;;7.25;1.70;;;;;;;7.43;100.00;101079.31;5035960;28;20048;-80
2022/11/25 04:45:16;;;;;;;8.55;1.95;;;;;;;7.44;100.00;101075.81;5036346;28;20396;-80
2022/11/25 04:47:42;;;;;;;7.20;1.67;;;;;;;7.23;100.00;101049.38;5035698;28;20041;-81
2022/11/25 04:50:12;;;;;;;8.50;1.67;;;;;;;7.40;100.00;101076.88;5035674;28;20472;-81
2022/11/25 04:52:37;;;;;;;2.40;1.20;;;;;;;7.37;100.00;101082.13;5036001;28;20025;-80
2022/11/25 04:55:04;;;;;;;5.40;1.30;;;;;;;7.36;100.00;101085.63;5035700;28;20495;-80
2022/11/25 04:57:29;;;;;;;4.78;1.02;;;;;;;7.34;100.00;101079.72;5017618;28;20044;-80
2022/11/25 04:59:55;;;;;;;4.60;1.17;;;;;;;7.32;100.00;101084.09;5035278;28;20029;-80
2022/11/25 05:02:23;;;;;;;5.82;1.55;;;;;;;7.26;100.00;101084.38;5035557;28;20087;-81
2022/11/25 05:04:50;;;;;;;5.70;1.23;;;;;;;7.17;100.00;101083.88;5035749;28;20021;-80
2022/11/25 05:07:18;;;;;;;3.72;1.08;;;;;;;7.14;100.00;101094.28;5035402;28;20033;-79
2022/11/25 05:09:43;;;;;;;6.30;1.30;;;;;;;6.89;100.00;101071.44;5035461;28;20022;-79
2022/11/25 05:12:15;;;;;;;6.57;1.30;;;;;;;6.91;100.00;101081.63;5035084;28;20045;-76
2022/11/25 05:14:40;;;;;;;7.05;1.30;;;;;;;6.94;100.00;101098.63;5035285;28;20224;-79
2022/11/25 05:17:06;;;;;;;3.97;1.30;;;;;;;6.89;100.00;101091.16;5035303;28;20560;-81
2022/11/25 05:19:34;;;;;;;4.55;1.30;;;;;;;6.93;100.00;101105.50;5035384;28;20026;-80
2022/11/25 05:22:00;;;;;;;4.68;1.30;;;;;;;6.81;100.00;101088.91;5035721;28;20361;-80
2022/11/25 05:24:25;;;;;;;8.48;2.20;;;;;;;6.83;100.00;101105.06;5035131;28;20124;-80
2022/11/25 05:26:51;;;;;;;5.15;2.03;;;;;;;6.79;100.00;101102.72;5034965;28;20047;-80
2022/11/25 05:29:16;;;;;;;6.88;1.90;;;;;;;6.78;100.00;101108.72;5035137;28;20059;-80
2022/11/25 05:31:41;;;;;;;5.35;1.63;;;;;;;6.64;100.00;101091.34;5033985;28;20033;-80
2022/11/25 05:34:07;;;;;;;6.07;1.92;;;;;;;6.74;100.00;101110.59;5034949;28;20033;-80
2022/11/25 05:36:32;;;;;;;7.22;1.77;;;;;;;6.33;100.00;101061.84;5034879;28;20083;-80
2022/11/25 05:38:58;;;;;;;7.93;2.75;;;;;;;6.51;100.00;101096.19;5034981;28;20072;-80
2022/11/25 05:41:24;;;;;;;5.22;1.88;;;;;;;6.42;100.00;101094.00;5034499;28;20029;-80
2022/11/25 05:43:49;;;;;;;7.47;2.33;;;;;;;6.26;100.00;101070.69;5034930;28;20072;-80
2022/11/25 05:46:15;;;;;;;9.48;2.58;;;;;;;6.46;100.00;101118.59;5034845;28;20021;-80
2022/11/25 05:48:40;;;;;;;13.02;2.90;;;;;;;6.37;100.00;101110.44;5034563;28;20493;-80
2022/11/25 05:51:07;;;;;;;8.80;2.90;;;;;;;6.38;100.00;101114.69;5034634;28;20473;-79
2022/11/25 05:53:34;;;;;;;11.02;3.03;;;;;;;6.36;100.00;101113.91;5034906;28;20025;-80
2022/11/25 05:56:02;;;;;;;9.32;3.20;;;;;;;6.23;100.00;101104.16;5016562;28;20121;-81
2022/11/25 05:58:29;;;;;;;10.70;3.17;;;;;;;6.24;100.00;101113.53;5016832;28;20025;-80
2022/11/25 06:00:54;;;;;;;9.23;3.05;;;;;;;6.04;100.00;101085.28;5034330;28;20026;-80
2022/11/25 06:03:26;;;;;;;14.30;3.78;;;;;;;6.17;100.00;101124.91;5034172;28;20113;-81
2022/11/25 06:05:54;;;;;;;11.10;3.80;;;;;;;6.10;100.00;101125.25;5041203;23;20049;-80
2022/11/25 06:08:19;;;;;;;12.90;3.10;;;;;;;6.15;100.00;101143.81;5034219;28;20032;-79
2022/11/25 06:10:44;;;;;;;9.75;3.28;;;;;;;6.11;100.00;101142.28;5034300;28;20029;-79
2022/11/25 06:13:10;;;;;;;13.65;3.58;;;;;;;6.10;100.00;101143.19;5034219;28;20075;-79
2022/11/25 06:15:41;;;;;;;10.77;3.88;;;;;;;6.10;100.00;101143.19;5034052;28;20072;-79
2022/11/25 06:18:07;;;;;;;12.75;3.90;;;;;;;6.08;100.00;101150.09;5016280;28;20133;-80
2022/11/25 06:20:32;;;;;;;13.32;4.55;;;;;;;5.91;100.00;101123.41;5034267;28;20028;-80
2022/11/25 06:22:57;;;;;;;11.43;4.53;;;;;;;6.02;100.00;101149.44;5033881;28;20393;-79
2022/11/25 06:25:24;;;;;;;14.88;4.22;;;;;;;5.99;100.00;101146.97;5034030;28;20021;-80
2022/11/25 06:27:50;;;;;;;13.60;4.80;;;;;;;5.81;100.00;101126.34;5033711;28;20464;-80
2022/11/25 06:30:16;;;;;;;16.45;4.50;;;;;;;5.97;100.00;101160.75;5033792;28;20036;-79
2022/11/25 06:32:41;;;;;;;13.60;4.70;;;;;;;5.98;100.00;101167.53;5033877;28;20087;-80
2022/11/25 06:35:07;;;;;;;15.57;5.28;;;;;;;5.85;100.00;101145.81;5033783;28;20033;-80
2022/11/25 06:37:33;;;;;;;13.90;5.18;;;;;;;5.92;100.00;101160.94;5033869;28;20025;-80
2022/11/25 06:39:58;;;;;;;17.08;6.20;;;;;;;6.06;100.00;101186.03;5016125;28;20104;-79
2022/11/25 06:42:23;;;;;;;15.07;4.85;;;;;;;6.03;100.00;101173.34;5033558;28;20022;-80
2022/11/25 06:44:49;;;;;;;12.55;4.95;;;;;;;5.84;100.00;101154.41;5033503;28;20036;-79
2022/11/25 06:47:14;;;;;;;15.20;5.03;;;;;;;5.97;100.00;101187.22;5033440;28;20026;-80
2022/11/25 06:49:39;;;;;;;13.93;4.55;;;;;;;5.90;100.00;101177.22;5033617;28;20461;-79
2022/11/25 06:52:05;;;;;;;13.35;4.30;;;;;;;5.87;100.00;101178.19;5033300;28;20069;-80
2022/11/25 06:54:30;;;;;;;14.02;4.10;;;;;;;5.61;100.00;101143.31;5033356;28;20104;-82
2022/11/25 06:56:55;;;;;;;12.82;4.07;;;;;;;5.83;100.00;101184.31;5033598;28;20056;-80
2022/11/25 06:59:22;;;;;;;12.27;3.65;;;;;;;5.83;100.00;101183.50;5014997;28;20030;-81
2022/11/25 07:01:47;;;;;;;16.60;4.38;;;;;;;5.78;100.00;101193.91;5033382;28;20029;-81
2022/11/25 07:04:12;;;;;;;13.15;3.88;;;;;;;5.62;100.00;101177.44;5014999;28;20038;-80
2022/11/25 07:06:38;;;;;;;12.32;4.03;;;;;;;5.57;100.00;101185.28;5033104;28;20045;-80
2022/11/25 07:09:04;;;;;;;10.15;3.78;;;;;;;5.66;100.00;101205.44;5033196;28;20034;-82
2022/11/25 07:11:35;;;;;;;11.98;4.00;;;;;;;5.66;100.00;101212.28;5033503;28;20371;-81
2022/11/25 07:14:03;;;;;;;13.25;4.30;;;;;;;5.67;100.00;101219.09;5033236;28;20036;-79
2022/11/25 07:16:31;;;;;;;11.63;3.90;;;;;;;5.70;100.00;101222.41;5033111;28;20155;-79
2022/11/25 07:19:00;;;;;;;13.30;4.18;;;;;;;5.76;100.00;101219.59;5032851;28;20453;-80
2022/11/25 07:21:27;;;;;;;13.13;3.63;;;;;;;5.73;100.00;101222.28;5033193;28;20117;-81
2022/11/25 07:23:52;;;;;;;13.45;4.15;;;;;;;5.79;100.00;101236.56;5033380;28;20057;-80
2022/11/25 07:26:24;;;;;;;15.55;4.40;;;;;;;5.76;100.00;101242.66;5033260;28;20076;-79
2022/11/25 07:28:51;;;;;;;11.32;4.03;;;;;;;5.64;100.00;101232.00;5032749;28;20026;-81
2022/11/25 07:31:30;;;;;;;11.77;4.03;;;;;;;5.66;100.00;101240.47;5039417;23;20471;-80
2022/11/25 07:34:05;;;;;;;12.30;3.97;;;;;;;5.64;100.00;101255.06;5032958;28;20097;-80
2022/11/25 07:36:32;;;;;;;14.30;4.32;;;;;;;5.59;100.00;101255.22;5032974;28;20029;-80
2022/11/25 07:39:00;;;;;;;15.45;4.22;;;;;;;5.60;100.00;101259.44;5032840;28;20072;-80
2022/11/25 07:41:26;;;;;;;12.27;4.78;;;;;;;5.58;100.00;101268.94;5032819;28;20071;-81
2022/11/25 07:43:54;;;;;;;12.63;4.72;;;;;;;5.46;100.00;101248.88;5032548;28;20075;-81
2022/11/25 07:46:28;;;;;;;11.10;4.63;;;;;;;5.38;100.00;101238.88;5032710;28;20500;-79
2022/11/25 07:48:55;;;;;;;11.35;4.30;;;;;;;5.62;100.00;101290.16;5032570;28;20028;-80
2022/11/25 07:51:26;;;;;;;12.38;4.07;;;;;;;5.68;100.00;101295.06;5032784;28;20025;-80
2022/11/25 07:53:54;;;;;;;13.00;4.90;;;;;;;5.74;100.00;101290.56;5032809;28;20021;-81
2022/11/25 07:56:20;;;;;;;12.93;4.85;;;;;;;5.76;100.00;101291.34;5017655;28;20037;-81
2022/11/25 07:58:46;;;;;;;15.00;4.50;;;;;;;5.68;100.00;101279.69;5036601;28;20025;-80
2022/11/25 08:01:40;;;;;;;15.75;4.70;;;;;;;5.75;100.00;101302.47;5042883;23;20036;-81
2022/11/25 08:04:39;;;;;;;11.00;4.43;;;;;;;5.74;100.00;101307.66;5016060;28;20042;-81
2022/11/25 08:07:23;;;;;;;11.77;4.32;;;;;;;4.52;100.00;101118.16;5016688;28;20123;-81
2022/11/25 08:14:22;;;;;;;11.50;3.83;;;;;;;5.72;100.00;101333.34;4994791;28;20042;-80
2022/11/25 08:19:41;;;;;;;15.48;4.55;;;;;;;4.72;100.00;101148.19;4994785;28;20036;-82
2022/11/25 08:22:43;;;;;;;16.02;5.00;;;;;;;5.82;100.00;101328.75;4994928;28;20404;-84
2022/11/25 08:25:09;;;;;;;12.93;4.30;;;;;;;5.71;100.00;101315.47;5017060;23;20054;-82
2022/11/25 08:27:34;;;;;;;16.20;4.40;;;;;;;5.54;100.00;101276.78;5016609;28;20056;-82
2022/11/25 08:29:59;;;;;;;14.80;4.93;;;;;;;5.90;100.00;101339.59;5016179;28;20109;-82
2022/11/25 08:32:25;;;;;;;13.52;5.03;;;;;;;5.78;100.00;101310.94;5016990;28;20432;-81
2022/11/25 08:34:50;;;;;;;15.05;4.95;;;;;;;5.92;100.00;101329.28;5016234;28;20556;-81
2022/11/25 08:37:15;;;;;;;15.20;5.03;;;;;;;5.95;100.00;101329.16;5016442;28;20022;-81
2022/11/25 08:39:41;;;;;;;15.38;4.63;;;;;;;5.97;100.00;101332.50;5016347;28;20026;-80
2022/11/25 08:42:06;;;;;;;15.45;5.50;;;;;;;5.90;100.00;101319.09;5016411;28;20034;-81
2022/11/25 08:44:32;;;;;;;18.38;5.20;;;;;;;6.08;100.00;101348.34;5015918;28;20112;-80
2022/11/25 08:46:57;;;;;;;10.10;4.40;;;;;;;6.01;100.00;101328.97;5015954;28;20080;-80
2022/11/25 08:49:25;;;;;;;14.63;5.05;;;;;;;6.14;100.00;101342.16;4998682;28;20080;-81
2022/11/25 08:51:51;;;;;;;11.65;4.68;;;;;;;6.17;100.00;101347.16;5016109;28;20444;-81
2022/11/25 08:54:16;;;;;;;16.42;4.90;;;;;;;5.98;100.00;101303.41;5015940;28;20026;-81
2022/11/25 08:56:42;;;;;;;15.15;5.88;;;;;;;6.26;100.00;101355.38;5016003;28;20033;-81
2022/11/25 08:59:08;;;;;;;16.08;5.30;;;;;;;6.28;100.00;101357.88;5015781;28;20026;-80
2022/11/25 09:01:33;;;;;;;17.17;5.68;;;;;;;6.31;100.00;101356.03;5015554;28;20033;-80
2022/11/25 09:03:59;;;;;;;13.25;5.07;;;;;;;6.35;100.00;101359.31;5014913;28;20022;-78
2022/11/25 09:06:26;;;;;;;16.77;5.88;;;;;;;6.43;100.00;101364.19;5015717;28;20030;-79
2022/11/25 09:08:56;;;;;;;19.17;5.78;;;;;;;6.47;100.00;101368.28;5015744;28;20076;-76
2022/11/25 09:11:22;;;;;;;19.50;6.15;;;;;;;6.50;100.00;101366.47;5015386;28;20033;-78
2022/11/25 09:13:47;;;;;;;16.73;5.72;;;;;;;6.54;100.00;101372.31;4998045;28;20035;-78
2022/11/25 09:16:14;;;;;;;13.13;5.28;;;;;;;6.59;100.00;101372.97;4978256;28;20394;-78
2022/11/25 09:18:39;;;;;;;15.30;5.60;;;;;;;6.43;100.00;101344.50;4998949;28;20025;-80
2022/11/25 09:21:10;;;;;;;15.05;5.43;;;;;;;6.56;100.00;101361.09;5015725;28;20164;-80
2022/11/25 09:23:37;;;;;;;20.33;5.10;;;;;;;6.76;100.00;101374.88;5015138;28;20528;-79
2022/11/25 09:26:04;;;;;;;15.48;5.43;;;;;;;6.78;100.00;101383.38;5015127;28;20524;-80
2022/11/25 09:28:30;;;;;;;13.15;4.88;;;;;;;6.86;100.00;101391.59;5015200;28;20033;-79
2022/11/25 09:30:55;;;;;;;10.50;4.28;;;;;;;6.80;100.00;101379.03;5014908;28;20021;-78
2022/11/25 09:33:20;;;;;;;13.02;4.45;;;;;;;6.80;100.00;101382.44;4981186;28;20041;-79
2022/11/25 09:35:47;;;;;;;12.50;4.97;;;;;;;6.90;100.00;101399.16;5013930;28;20482;-78
2022/11/25 09:38:12;;;;;;;14.07;4.20;;;;;;;6.81;100.00;101378.13;5015252;28;20036;-75
2022/11/25 09:40:53;;;;;;;16.02;4.13;;;;;;;6.99;100.00;101408.22;5015115;28;20112;-77
2022/11/25 09:46:50;;;;;;;15.70;5.05;;;;;;;7.11;100.00;101419.75;4954862;28;20431;-79
2022/11/25 09:49:21;;;;;;;15.30;4.00;;;;;;;7.16;100.00;101423.81;4954481;29;20071;-81
2022/11/25 09:51:55;;;;;;;14.30;4.70;;;;;;;7.04;100.00;101398.59;4954716;29;20039;-80
2022/11/25 09:54:26;;;;;;;20.35;4.70;;;;;;;7.22;100.00;101425.31;4938216;29;20039;-81
2022/11/25 09:57:36;;;;;;;12.27;4.65;;;;;;;7.01;100.00;101385.06;4938017;29;20058;-81
2022/11/25 10:00:06;;;;;;;12.65;3.70;;;;;;;7.33;100.00;101437.72;4954384;29;20067;-82
2022/11/25 10:02:31;;;;;;;11.30;4.38;;;;;;;7.36;100.00;101438.44;4953801;29;20035;-80
2022/11/25 10:05:13;;;;;;;11.20;3.97;;;;;;;7.41;100.00;101443.41;4954323;29;20089;-82
2022/11/25 10:07:43;;;;;;;12.15;3.80;;;;;;;7.36;100.00;101433.28;4954225;29;20479;-79
2022/11/25 10:10:20;;;;;;;13.10;3.40;;;;;;;7.42;100.00;101438.19;4954044;29;20043;-82
2022/11/25 10:12:48;;;;;;;14.65;3.58;;;;;;;7.40;100.00;101431.44;4954191;29;20074;-84
2022/11/25 10:15:34;;;;;;;13.55;4.25;;;;;;;7.59;100.00;101458.09;4954149;29;20912;-85
2022/11/25 10:18:03;;;;;;;13.60;3.92;;;;;;;7.66;100.00;101458.66;4953552;28;20031;-82
2022/11/25 10:20:35;;;;;;;11.85;4.05;;;;;;;7.68;100.00;101462.03;4954157;29;20050;-76
2022/11/25 10:23:05;;;;;;;15.88;3.90;;;;;;;7.66;100.00;101453.50;5012803;28;20033;-83
2022/11/25 10:25:38;;;;;;;15.85;4.00;;;;;;;7.79;100.00;101470.13;5014202;28;20038;-83
2022/11/25 10:28:11;;;;;;;12.27;3.60;;;;;;;7.84;100.00;101481.03;5014440;28;20121;-77
2022/11/25 10:30:57;;;;;;;12.05;3.85;;;;;;;7.86;100.00;101480.97;5014257;28;20029;-76
2022/11/25 10:33:49;;;;;;;14.07;3.47;;;;;;;7.89;100.00;101492.00;5014051;28;20037;-76
2022/11/25 10:36:19;;;;;;;13.27;4.18;;;;;;;7.91;100.00;101486.78;5013787;28;20024;-75
2022/11/25 10:39:12;;;;;;;16.37;3.70;;;;;;;7.95;100.00;101494.28;5014250;28;20017;-78
2022/11/25 10:41:47;;;;;;;9.50;3.17;;;;;;;7.93;100.00;101490.13;5014173;28;20127;-76
2022/11/25 10:44:28;;;;;;;14.20;4.18;;;;;;;8.02;100.00;101498.28;5014201;28;20834;-78
2022/11/25 10:47:31;;;;;;;11.55;3.83;;;;;;;8.11;100.00;101497.06;5013736;28;20026;-77
2022/11/25 10:50:14;;;;;;;12.90;3.60;;;;;;;8.17;100.00;101501.13;5013785;28;20041;-77
2022/11/25 10:52:54;;;;;;;14.82;3.55;;;;;;;8.22;100.00;101502.59;5013907;28;20026;-76
2022/11/25 10:55:25;;;;;;;13.63;3.47;;;;;;;8.27;100.00;101508.41;5013175;28;20481;-82
2022/11/25 10:57:52;;;;;;;13.52;3.42;;;;;;;8.24;100.00;101489.66;5013850;28;20033;-76
2022/11/25 11:00:33;;;;;;;9.50;3.28;;;;;;;8.34;100.00;101512.38;5013815;28;20021;-76
2022/11/25 11:03:12;;;;;;;10.75;3.72;;;;;;;8.39;100.00;101507.06;5013434;28;20088;-75
2022/11/25 11:05:45;;;;;;;10.73;3.33;;;;;;;8.47;100.00;101514.47;5013466;28;20036;-76
2022/11/25 11:08:19;;;;;;;8.70;3.13;;;;;;;8.50;100.00;101514.31;5013609;28;20473;-76
2022/11/25 11:10:45;;;;;;;10.20;3.08;;;;;;;8.34;100.00;101494.38;4995894;28;20120;-75
2022/11/25 11:13:16;;;;;;;12.55;3.53;;;;;;;8.55;100.00;101522.66;5013541;28;20416;-75
2022/11/25 11:15:41;;;;;;;10.52;2.90;;;;;;;8.55;100.00;101526.09;5013700;28;20030;-82
2022/11/25 11:18:24;;;;;;;11.23;3.05;;;;;;;8.55;100.00;101528.69;5013042;28;20512;-82
2022/11/25 11:20:53;;;;;;;10.27;3.00;;;;;;;8.57;100.00;101538.91;4994245;28;20428;-83
2022/11/25 11:23:19;;;;;;;9.55;2.70;;;;;;;8.55;100.00;101525.22;4992776;28;20165;-79
2022/11/25 11:26:02;;;;;;;11.60;3.28;;;;;;;8.62;100.00;101539.53;4993710;28;20127;-84
2022/11/25 11:28:39;;;;;;;9.73;3.20;;;;;;;8.71;100.00;101540.88;4993800;28;20027;-82
2022/11/25 11:31:30;;;;;;;13.27;3.20;;;;;;;8.75;100.00;101544.97;4974689;28;20096;-83
2022/11/25 11:34:04;;;;;;;13.80;2.58;;;;;;;8.78;100.00;101547.44;4993489;28;20030;-84
2022/11/25 11:36:35;;;;;;;7.80;2.70;;;;;;;8.80;100.00;101548.19;4992377;28;20398;-84
2022/11/25 11:39:04;;;;;;;;;;;;;;;8.82;100.00;101556.69;4994052;28;20423;-82
2022/11/25 11:41:44;;;;;;;7.00;2.85;;;;;;;8.89;100.00;101548.63;4993445;28;19928;-83
2022/11/25 11:44:21;;;;;;;9.60;2.65;;;;;;;8.92;100.00;101568.25;4976061;28;20088;-84